Flight Track Log - Related Links

Times and Time Zones

All times are in EDT time to prevent confusion due to time zone crossing. See the N600AJ flight status page for this flight to view local times or setup timezone preferences in your user account.

Time Position Orientation Groundspeed Altitude Reporting Facility
EDT Latitude Longitude Course Direction KTS MPH feet Rate Location/Type
Fri 01:20:00 PM 43.5701 -73.0354 264° West  Level FlightAware Approximate
Fri 01:20:37 PM 43.6611 -72.3339 324° Northwest 454 522 6,500  Level Boston Center
Fri 01:21:35 PM 43.6508 -72.4400 262° West 361 415 11,200 4,185 Climbing Boston Center
Fri 01:22:36 PM 43.6425 -72.5664 265° West 340 391 14,800 3,620 Climbing Boston Center
Fri 01:23:36 PM 43.6339 -72.6983 265° West 335 386 18,500 3,223 Climbing Boston Center
Fri 01:24:37 PM 43.6208 -72.8386 263° West 353 406 21,300 2,723 Climbing Boston Center
Fri 01:25:35 PM 43.6100 -72.9878 264° West 370 426 23,900 1,361 Climbing Boston Center
Fri 01:26:36 PM 43.5922 -73.1594 262° West 396 456 24,000 49 Climbing Boston Center
Fri 01:27:37 PM 43.5786 -73.3169 263° West 418 481 24,000  Level Boston Center
Fri 01:28:38 PM 43.5647 -73.4803 263° West 428 493 24,000  Level Boston Center
Fri 01:29:36 PM 43.5508 -73.6403 263° West 428 493 24,000  Level Boston Center
Fri 01:30:36 PM 43.5322 -73.8033 261° West 428 493 24,000  Level Boston Center
Fri 01:31:37 PM 43.5200 -73.9461 263° West 428 493 24,000  Level Boston Center
Fri 01:32:38 PM 43.5072 -74.1089 264° West 428 493 24,000  Level Boston Center
Fri 01:33:35 PM 43.4925 -74.2717 263° West 428 493 24,000  Level Boston Center
Fri 01:34:35 PM 43.4750 -74.4344 262° West 428 493 24,000  Level Boston Center
Fri 01:35:36 PM 43.4617 -74.5969 264° West 428 493 24,000  Level Boston Center
Fri 01:36:37 PM 43.4461 -74.7594 263° West 428 493 24,000  Level Boston Center
Fri 01:37:37 PM 43.4300 -74.9217 262° West 428 493 24,000  Level Boston Center
Fri 01:38:37 PM 43.4139 -75.0842 262° West 428 493 24,000  Level Boston Center
Fri 01:39:35 PM 43.3994 -75.2492 263° West 428 493 24,000  Level Boston Center
Fri 01:40:36 PM 43.3828 -75.4142 262° West 433 498 24,000  Level Boston Center
Fri 01:41:37 PM 43.3614 -75.5931 261° West 439 505 24,000 -446 Level Boston Center
Fri 01:42:37 PM 43.3444 -75.7522 262° West 439 505 23,100 -1,271 Descending Boston Center
Fri 01:43:35 PM 43.3272 -75.9139 262° West 439 505 21,500 -1,576 Descending Boston Center
Fri 01:44:35 PM 43.3117 -76.0728 262° West 434 499 20,000 -1,105 Descending Boston Center
Fri 01:46:45 PM 43.2725 -76.4000 261° West 414 476 18,000 -632 Descending Cleveland Center
Fri 01:47:45 PM 43.2550 -76.5550 261° West 414 476 18,000 -50 Level Cleveland Center
Fri 01:48:45 PM 43.2375 -76.7103 261° West 414 476 17,900 -1,000 Descending Cleveland Center
Fri 01:49:45 PM 43.2194 -76.8625 261° West 414 476 16,000 -2,165 Descending Cleveland Center
Fri 01:50:22 PM 43.2039 -76.9658 258° West 400 460 14,400 -2,351 Descending Cleveland Center
Fri 01:51:22 PM 43.1856 -77.1150 260° West 399 459 12,200 -1,701 Descending Cleveland Center
Fri 01:52:29 PM 43.1611 -77.2703 258° West 351 404 10,800 -1,417 Descending Cleveland Center
Fri 01:53:29 PM 43.1181 -77.3747 241° Southwest 279 321 9,200 -1,748 Descending Cleveland Center
Fri 01:54:36 PM 43.0811 -77.4733 243° Southwest 276 318 7,100 -1,967 Descending Cleveland Center
Fri 01:55:31 PM 43.0500 -77.5517 241° Southwest 261 300 5,200 -2,191 Descending Cleveland Center
Fri 01:56:31 PM 43.0147 -77.6442 242° Southwest 262 302 2,900 -1,339 Descending Cleveland Center
Fri 01:57:32 PM 43.0353 -77.7172 291° West 194 223 2,500 -738 Descending Cleveland Center
Fri 01:58:33 PM 43.0750 -77.7211 356° North 144 166 1,400 -857 Descending Cleveland Center
Fri 01:59:45 PM 43.1075 -77.6883 36° Northeast 95 109 600 -667 Descending Cleveland Center

Login

Don't have an account? Register now (free) for customized features, flight alerts, and more!